Time;durP1;ratioP1;P1;durP2;ratioP2;P2;SDS_P1;SDS_P2;PMS_P1;PMS_P2;Temp;Humidity;BMP_temperature;BMP_pressure;BME280_temperature;BME280_humidity;BME280_pressure;Samples;Min_cycle;Max_cycle;Signal;HPM_P1;HPM_P2
2021/05/04 00:02:27;;;;;;;5.13;4.63;;;3.50;99.90;;;3.88;49.04;94119.44;5071826;28;20243;-68
2021/05/04 00:04:54;;;;;;;5.30;4.67;;;3.40;99.90;;;3.97;49.23;94116.28;5089493;28;20183;-68
2021/05/04 00:07:24;;;;;;;5.10;4.63;;;3.60;99.90;;;3.90;49.05;94115.56;5089145;28;20244;-69
2021/05/04 00:09:50;;;;;;;5.03;4.53;;;3.40;99.90;;;3.85;49.08;94107.56;5073358;28;20627;-68
2021/05/04 00:12:16;;;;;;;5.30;4.80;;;3.40;99.90;;;3.90;49.34;94118.19;5072938;28;20197;-68
2021/05/04 00:14:42;;;;;;;4.50;4.10;;;3.40;99.90;;;3.94;49.65;94108.88;5070755;28;20202;-67
2021/05/04 00:17:08;;;;;;;4.77;4.17;;;3.50;99.90;;;3.87;49.45;94116.00;5072335;28;20217;-67
2021/05/04 00:19:34;;;;;;;5.83;4.60;;;3.80;99.90;;;3.81;49.33;94121.31;5071143;28;20816;-67
2021/05/04 00:22:03;;;;;;;7.40;5.30;;;3.40;99.90;;;3.88;49.22;94116.81;5039515;28;20204;-67
2021/05/04 00:24:31;;;;;;;4.93;4.43;;;3.40;99.90;;;3.92;49.22;94118.78;5083929;28;20677;-68
2021/05/04 00:26:57;;;;;;;5.17;4.73;;;3.40;99.90;;;3.94;49.90;94106.25;5088436;28;20732;-68
2021/05/04 00:29:23;;;;;;;5.67;5.07;;;3.40;99.90;;;4.00;49.29;94112.44;5081920;28;20259;-68
2021/05/04 00:31:49;;;;;;;5.27;4.77;;;3.60;99.90;;;4.02;49.85;94108.59;5071369;28;20653;-68
2021/05/04 00:34:19;;;;;;;5.47;4.97;;;3.50;99.90;;;3.99;50.07;94103.78;5071750;28;20317;-67
2021/05/04 00:36:45;;;;;;;5.33;4.83;;;3.40;99.90;;;3.92;50.24;94102.25;5083764;28;20200;-68
2021/05/04 00:39:11;;;;;;;5.57;5.07;;;3.40;99.90;;;3.91;50.56;94106.69;5090352;28;20219;-68
2021/05/04 00:41:37;;;;;;;5.47;4.97;;;3.60;99.90;;;3.99;50.74;94103.78;5110497;28;20181;-67
2021/05/04 00:44:03;;;;;;;5.73;5.13;;;3.50;99.90;;;3.93;50.45;94095.97;5075902;28;20186;-68
2021/05/04 00:46:35;;;;;;;5.43;4.87;;;3.40;99.90;;;3.94;50.62;94090.53;5070097;28;20663;-67
2021/05/04 00:49:01;;;;;;;5.63;5.13;;;3.40;99.90;;;3.87;50.33;94088.97;5068168;28;20692;-69
2021/05/04 00:51:29;;;;;;;5.67;5.17;;;3.30;99.90;;;3.93;50.69;94086.28;5071205;28;20184;-67
2021/05/04 00:53:55;;;;;;;6.33;4.87;;;4.00;99.90;;;4.04;50.50;94077.69;5089228;28;20569;-68
2021/05/04 00:56:26;;;;;;;5.30;4.80;;;3.40;99.90;;;4.02;50.78;94082.38;5089199;28;20195;-69
2021/05/04 00:58:55;;;;;;;5.33;4.83;;;3.40;99.90;;;3.98;50.89;94075.97;5054589;28;20695;-66
2021/05/04 01:01:21;;;;;;;5.87;5.27;;;3.40;99.90;;;4.04;51.07;94069.03;5058074;28;20229;-68
2021/05/04 01:03:49;;;;;;;5.53;5.03;;;3.50;99.90;;;3.97;51.38;94074.34;5074573;28;20624;-67
2021/05/04 01:06:17;;;;;;;5.60;4.83;;;3.80;99.90;;;3.99;50.87;94077.56;5069809;28;20323;-68
2021/05/04 01:08:43;;;;;;;5.23;4.20;;;3.40;99.90;;;4.00;51.35;94070.47;5065657;28;20200;-66
2021/05/04 01:11:09;;;;;;;5.43;4.93;;;3.50;99.90;;;4.01;51.30;94072.09;5073802;28;20195;-67
2021/05/04 01:13:35;;;;;;;5.60;5.10;;;3.60;99.90;;;3.91;50.84;94070.00;5065404;28;20178;-66
2021/05/04 01:16:01;;;;;;;4.70;4.30;;;3.40;99.90;;;3.89;50.94;94066.78;5058107;28;20694;-66
2021/05/04 01:18:32;;;;;;;4.70;4.30;;;3.30;99.90;;;3.88;51.45;94080.09;5068169;28;20624;-66
2021/05/04 01:20:57;;;;;;;5.47;4.53;;;3.40;99.90;;;3.79;51.33;94068.31;5075179;28;20934;-66
2021/05/04 01:23:26;;;;;;;5.67;4.83;;;3.30;99.90;;;3.83;51.04;94070.28;5076843;28;20226;-67
2021/05/04 01:25:54;;;;;;;5.47;4.80;;;3.30;99.90;;;3.72;51.00;94060.53;5081195;28;20199;-67
2021/05/04 01:28:23;;;;;;;5.33;4.83;;;3.30;99.90;;;3.75;51.38;94062.72;5058398;28;20207;-69
2021/05/04 01:30:51;;;;;;;6.47;5.07;;;3.30;99.90;;;3.81;51.50;94059.22;5055867;28;20177;-67
2021/05/04 01:33:17;;;;;;;5.67;4.70;;;3.30;99.90;;;3.71;51.86;94053.69;5070520;28;20181;-66
2021/05/04 01:35:48;;;;;;;6.00;5.37;;;4.30;99.90;;;3.71;51.48;94056.31;5072817;28;20242;-66
2021/05/04 01:38:16;;;;;;;5.17;4.67;;;3.20;99.90;;;3.74;51.61;94050.63;5074156;28;20210;-67
2021/05/04 01:40:45;;;;;;;4.67;4.27;;;3.20;99.90;;;3.79;51.93;94045.53;5075003;28;20588;-66
2021/05/04 01:43:14;;;;;;;6.00;5.10;;;3.50;99.90;;;3.86;51.59;94046.25;5073562;28;20182;-68
2021/05/04 01:45:42;;;;;;;5.40;4.90;;;3.50;99.90;;;3.85;52.19;94042.03;5058330;28;20178;-67
2021/05/04 01:48:10;;;;;;;5.90;4.93;;;4.10;99.90;;;3.85;52.27;94044.66;5068209;28;20564;-66
2021/05/04 01:50:36;;;;;;;5.20;4.70;;;3.30;99.90;;;3.88;51.99;94033.72;5084000;28;20188;-67
2021/05/04 01:53:04;;;;;;;6.37;5.10;;;3.30;99.90;;;3.83;52.20;94035.41;5076827;28;20195;-65
2021/05/04 01:55:33;;;;;;;6.30;4.83;;;3.50;99.90;;;3.81;52.02;94030.38;5054963;28;20205;-66
2021/05/04 01:57:59;;;;;;;6.30;4.50;;;3.40;99.90;;;3.84;52.26;94031.75;5062279;28;20255;-67
2021/05/04 02:00:29;;;;;;;4.77;4.27;;;3.90;99.90;;;3.81;52.58;94032.19;5092376;28;20193;-66
2021/05/04 02:02:55;;;;;;;5.03;4.20;;;3.90;99.90;;;3.75;52.66;94028.66;5058490;28;20188;-67
2021/05/04 02:05:24;;;;;;;4.77;4.37;;;3.80;99.90;;;3.77;52.92;94020.53;5053622;28;20565;-67
2021/05/04 02:07:50;;;;;;;5.00;4.50;;;3.30;99.90;;;3.65;52.18;94022.31;5061165;28;20725;-66
2021/05/04 02:10:18;;;;;;;5.27;4.27;;;3.20;99.90;;;3.63;52.64;94017.28;5092358;28;20196;-69
2021/05/04 02:12:44;;;;;;;5.00;4.50;;;3.20;99.90;;;3.64;52.64;94013.66;5062866;28;20266;-67
2021/05/04 02:15:12;;;;;;;5.20;4.70;;;3.20;99.90;;;3.58;52.32;94009.28;5095436;28;20648;-66
2021/05/04 02:17:38;;;;;;;9.03;4.97;;;3.20;99.90;;;3.56;52.78;94008.69;5069463;28;20200;-66
2021/05/04 02:20:09;;;;;;;7.10;4.80;;;3.10;99.90;;;3.59;52.47;94008.28;5071909;28;20539;-68
2021/05/04 02:22:36;;;;;;;5.33;4.83;;;3.00;99.90;;;3.60;52.92;94005.41;5073507;28;20181;-66
2021/05/04 02:25:03;;;;;;;6.30;4.80;;;3.30;99.90;;;3.66;52.94;93998.50;5076390;28;20204;-66
2021/05/04 02:27:33;;;;;;;5.53;4.97;;;3.10;99.90;;;3.60;53.02;93997.56;5044399;28;20222;-65
2021/05/04 02:29:59;;;;;;;5.60;4.90;;;3.10;99.90;;;3.52;53.16;93992.63;5038774;28;20637;-68
2021/05/04 02:32:26;;;;;;;5.23;4.73;;;3.00;99.90;;;3.55;52.72;93999.25;5084821;28;20176;-66
2021/05/04 02:34:53;;;;;;;5.67;5.17;;;3.00;99.90;;;3.56;53.18;93977.25;5074393;28;20688;-67
2021/05/04 02:37:20;;;;;;;5.60;5.10;;;3.10;99.90;;;3.45;53.10;93975.38;5073221;28;20224;-67
2021/05/04 02:39:48;;;;;;;6.80;5.10;;;3.00;99.90;;;3.36;53.56;93974.06;5072039;28;20549;-66
2021/05/04 02:42:14;;;;;;;6.57;5.87;;;2.90;99.90;;;3.47;53.38;93970.72;5088161;28;20874;-67
2021/05/04 02:44:40;;;;;;;6.07;5.40;;;3.70;99.90;;;3.43;53.67;93966.94;5055405;28;20196;-67
2021/05/04 02:47:06;;;;;;;8.10;6.03;;;3.00;99.90;;;3.36;53.57;93953.09;5061374;28;20206;-66
2021/05/04 02:49:32;;;;;;;6.40;5.60;;;3.40;99.90;;;3.47;53.66;93952.38;5077996;28;20547;-66
2021/05/04 02:51:57;;;;;;;6.13;5.57;;;2.90;99.90;;;3.49;53.13;93958.22;5087823;28;20199;-66
2021/05/04 02:54:23;;;;;;;5.87;5.23;;;2.90;99.90;;;3.49;53.58;93956.38;5079223;28;20191;-67
2021/05/04 02:56:49;;;;;;;8.83;5.57;;;2.90;99.90;;;3.46;53.37;93946.34;5049168;28;20268;-66
2021/05/04 02:59:15;;;;;;;5.50;5.00;;;3.20;99.90;;;3.41;53.48;93950.63;5073166;28;20524;-67
2021/05/04 03:01:41;;;;;;;6.40;5.07;;;3.50;99.90;;;3.33;53.77;93943.06;5072681;28;20172;-68
2021/05/04 03:04:07;;;;;;;5.20;4.70;;;2.70;99.90;;;3.41;53.30;93938.34;5082479;28;20180;-67
2021/05/04 03:06:33;;;;;;;6.23;5.30;;;2.80;99.90;;;3.33;54.18;93940.44;5090912;28;20179;-69
2021/05/04 03:08:59;;;;;;;6.13;5.13;;;2.70;99.90;;;3.27;53.94;93934.28;5069771;28;20223;-67
2021/05/04 03:11:27;;;;;;;6.60;5.13;;;2.70;99.90;;;3.29;54.29;93931.44;5072720;28;20260;-67
2021/05/04 03:13:54;;;;;;;5.90;5.30;;;2.90;99.90;;;3.33;54.17;93928.16;5055257;28;20217;-67
2021/05/04 03:16:21;;;;;;;6.77;5.47;;;2.70;99.90;;;3.37;53.79;93931.13;5065040;28;20205;-66
2021/05/04 03:18:47;;;;;;;7.43;5.57;;;2.70;99.90;;;3.34;54.42;93921.91;5068964;28;20220;-67
2021/05/04 03:21:15;;;;;;;6.53;5.63;;;3.10;99.90;;;3.33;54.29;93924.72;5072056;28;20218;-67
2021/05/04 03:23:41;;;;;;;7.13;5.30;;;2.70;99.90;;;3.33;54.56;93911.63;5074690;28;20179;-66
2021/05/04 03:26:07;;;;;;;5.87;5.27;;;2.70;99.90;;;3.28;54.09;93909.69;5052858;28;20169;-66
2021/05/04 03:28:33;;;;;;;7.50;5.43;;;2.70;99.90;;;3.23;54.34;93899.06;5077916;28;20188;-67
2021/05/04 03:31:01;;;;;;;6.60;5.40;;;2.70;99.90;;;3.18;54.10;93906.00;5039145;28;20269;-68
2021/05/04 03:33:27;;;;;;;6.70;6.00;;;2.90;99.90;;;3.12;54.20;93889.34;5061977;28;20272;-66
2021/05/04 03:35:53;;;;;;;5.83;5.33;;;3.50;99.90;;;3.21;54.25;93890.66;5072714;28;20291;-67
2021/05/04 03:38:19;;;;;;;6.30;5.70;;;2.90;99.90;;;3.17;54.97;93888.69;5054188;28;20617;-66
2021/05/04 03:40:45;;;;;;;7.43;5.23;;;2.90;99.90;;;3.15;54.94;93890.72;5056096;28;20240;-69
2021/05/04 03:43:14;;;;;;;6.20;4.97;;;3.50;99.90;;;3.23;54.67;93885.97;5071290;28;20204;-67
2021/05/04 03:45:40;;;;;;;5.30;4.80;;;2.70;99.90;;;3.20;54.61;93880.38;5055881;28;20213;-70
2021/05/04 03:48:06;;;;;;;4.80;4.33;;;2.80;99.90;;;3.18;54.44;93880.63;5087483;28;20207;-65
2021/05/04 03:50:32;;;;;;;5.70;4.73;;;2.70;99.90;;;3.30;55.06;93893.75;5088391;28;20279;-68
2021/05/04 03:53:00;;;;;;;7.53;4.90;;;3.00;99.90;;;3.31;55.19;93888.31;5077177;28;20196;-67
2021/05/04 03:55:26;;;;;;;5.53;4.43;;;2.80;99.90;;;3.38;54.65;93883.78;5086817;28;20188;-69
2021/05/04 03:57:55;;;;;;;5.23;4.67;;;2.80;99.90;;;3.42;54.93;93884.97;5060424;28;20172;-70
2021/05/04 04:00:22;;;;;;;6.10;4.67;;;2.90;99.90;;;3.48;55.38;93893.75;5067622;28;20191;-67
2021/05/04 04:02:48;;;;;;;5.00;3.97;;;3.00;99.90;;;3.42;54.81;93887.56;5061301;28;20178;-68
2021/05/04 04:05:17;;;;;;;5.10;4.37;;;3.80;99.90;;;3.38;55.10;93885.59;5070722;28;20513;-67
2021/05/04 04:07:43;;;;;;;5.50;4.50;;;2.90;99.90;;;3.31;55.24;93895.34;5051311;28;20198;-68
2021/05/04 04:10:12;;;;;;;5.03;4.13;;;2.70;99.90;;;3.31;55.30;93890.94;5067864;28;20290;-70
2021/05/04 04:12:40;;;;;;;5.10;4.47;;;4.00;99.90;;;3.26;54.89;93884.72;5033848;28;20219;-68
2021/05/04 04:15:09;;;;;;;6.17;4.17;;;3.50;99.90;;;3.41;55.46;93890.41;5072172;28;20164;-68
2021/05/04 04:17:38;;;;;;;4.47;4.07;;;2.80;99.90;;;3.45;55.01;93884.50;5077153;28;20235;-69
2021/05/04 04:20:06;;;;;;;8.10;4.60;;;3.50;99.90;;;3.33;55.57;93886.25;5071434;28;20189;-68
2021/05/04 04:22:34;;;;;;;4.33;3.93;;;2.70;99.90;;;3.33;55.93;93901.16;5069786;28;20767;-68
2021/05/04 04:25:05;;;;;;;5.80;4.37;;;2.80;99.90;;;3.32;55.85;93881.25;5069025;28;20191;-71
2021/05/04 04:27:31;;;;;;;4.87;3.70;;;2.80;99.90;;;3.26;56.00;93876.88;5071749;28;20778;-68
2021/05/04 04:29:59;;;;;;;4.60;4.20;;;2.80;99.90;;;3.27;55.86;93883.72;5071081;28;20208;-68
2021/05/04 04:32:25;;;;;;;6.80;4.13;;;2.80;99.90;;;3.35;56.24;93893.91;5072065;28;20180;-68
2021/05/04 04:34:53;;;;;;;9.00;4.50;;;2.80;99.90;;;3.47;56.10;93885.06;5087261;28;20207;-68
2021/05/04 04:37:20;;;;;;;5.40;4.73;;;3.20;99.90;;;3.67;55.90;93889.25;5069623;28;20176;-69
2021/05/04 04:39:48;;;;;;;5.43;3.93;;;3.00;99.90;;;3.73;55.62;93885.75;5057837;28;20191;-67
2021/05/04 04:42:14;;;;;;;6.67;3.80;;;3.40;99.90;;;3.83;56.24;93886.03;5058543;28;20191;-67
2021/05/04 04:44:46;;;;;;;6.03;3.90;;;3.20;99.90;;;3.92;56.14;93887.28;5058329;28;20193;-69
2021/05/04 04:47:12;;;;;;;4.47;3.87;;;3.20;99.90;;;3.92;55.92;93887.28;5090750;28;20234;-68
2021/05/04 04:49:39;;;;;;;4.93;3.97;;;3.30;99.90;;;3.95;55.85;93892.88;5093052;28;20818;-68
2021/05/04 04:52:08;;;;;;;7.27;4.30;;;3.30;99.90;;;4.10;56.02;93892.44;5040792;28;20197;-68
2021/05/04 04:54:34;;;;;;;5.00;3.80;;;3.40;99.90;;;4.27;56.26;93885.53;5087152;28;20535;-68
2021/05/04 04:57:03;;;;;;;5.27;3.73;;;3.60;99.90;;;4.33;56.08;93889.88;5092746;28;20635;-71
2021/05/04 04:59:29;;;;;;;4.80;4.00;;;3.60;99.90;;;4.46;56.30;93884.44;5096025;28;20845;-68
2021/05/04 05:01:58;;;;;;;5.90;4.03;;;3.80;99.90;;;4.55;56.61;93892.75;5093295;28;20179;-67
2021/05/04 05:04:24;;;;;;;4.93;4.03;;;3.90;99.90;;;4.76;56.57;93894.03;5092537;28;20234;-70
2021/05/04 05:06:53;;;;;;;4.30;3.90;;;4.10;99.90;;;4.96;56.71;93884.75;5053002;28;20184;-67
2021/05/04 05:09:20;;;;;;;6.30;4.43;;;4.30;99.90;;;5.23;56.58;93892.94;5078208;28;20207;-66
2021/05/04 05:11:46;;;;;;;4.03;3.70;;;4.60;99.90;;;5.45;56.42;93885.22;5080310;28;20183;-67
2021/05/04 05:14:12;;;;;;;7.60;7.00;;;4.80;99.90;;;5.72;57.26;93885.47;5056827;28;20604;-68
2021/05/04 05:16:38;;;;;;;5.33;4.13;;;5.10;99.90;;;6.00;57.44;93886.31;5064539;28;20270;-68
2021/05/04 05:19:06;;;;;;;4.57;4.17;;;5.40;99.90;;;6.26;57.27;93878.84;5058510;28;20175;-68
2021/05/04 05:21:35;;;;;;;4.30;3.90;;;5.60;99.90;;;6.50;57.01;93881.09;5075116;28;20169;-69
2021/05/04 05:24:03;;;;;;;3.73;3.30;;;6.60;99.90;;;6.72;57.26;93881.13;5055337;28;20187;-70
2021/05/04 05:26:33;;;;;;;4.13;2.90;;;6.10;99.90;;;6.96;56.80;93894.91;5075571;28;20189;-67
2021/05/04 05:28:59;;;;;;;3.40;2.80;;;6.30;99.90;;;7.15;57.35;93889.13;5084407;28;20202;-68
2021/05/04 05:31:28;;;;;;;3.23;2.93;;;6.50;99.90;;;7.34;57.81;93883.56;5058613;28;20182;-66
2021/05/04 05:33:54;;;;;;;3.30;2.77;;;6.70;99.90;;;7.55;56.77;93891.50;5069401;28;20184;-66
2021/05/04 05:36:21;;;;;;;3.43;2.90;;;6.90;99.90;;;7.68;56.87;93882.41;5061441;28;20203;-66
2021/05/04 05:38:47;;;;;;;3.40;2.50;;;7.10;99.90;;;7.86;57.47;93886.53;5056369;28;20176;-67
2021/05/04 05:41:13;;;;;;;4.67;2.67;;;7.30;99.90;;;8.00;57.80;93890.41;5073150;28;20197;-67
2021/05/04 05:43:39;;;;;;;4.20;2.60;;;7.40;99.90;;;8.09;57.80;93888.94;5062173;28;20183;-66
2021/05/04 05:46:06;;;;;;;4.10;2.60;;;7.50;99.90;;;8.19;57.68;93879.22;5054722;28;20178;-68
2021/05/04 05:48:34;;;;;;;3.57;2.90;;;7.60;99.90;;;8.32;57.54;93896.56;5057715;28;20200;-68
2021/05/04 05:51:03;;;;;;;3.20;2.43;;;7.70;99.90;;;8.44;57.94;93897.19;5054991;28;20239;-68
2021/05/04 05:53:29;;;;;;;3.30;2.27;;;7.90;99.90;;;8.59;57.90;93893.88;5093648;28;20210;-67
2021/05/04 05:55:57;;;;;;;6.33;2.60;;;8.00;99.90;;;8.62;57.27;93898.66;5064881;28;20190;-68
2021/05/04 05:58:23;;;;;;;2.47;2.20;;;8.10;99.90;;;8.65;57.04;93892.88;5065293;28;20179;-67
2021/05/04 06:00:50;;;;;;;3.40;2.53;;;8.20;99.90;;;8.69;57.40;93901.91;5091452;28;20200;-69
2021/05/04 06:03:16;;;;;;;2.30;2.10;;;8.30;99.90;;;8.80;57.70;93898.25;5070739;28;20195;-68
2021/05/04 06:05:42;;;;;;;2.33;2.13;;;8.20;99.90;;;8.82;57.67;93898.81;5052668;28;20190;-69
2021/05/04 06:08:08;;;;;;;2.67;2.10;;;8.20;99.90;;;8.99;57.47;93893.38;5070168;28;20264;-71
2021/05/04 06:10:35;;;;;;;2.83;2.10;;;8.60;99.90;;;9.10;57.55;93895.81;5071916;28;20179;-68
2021/05/04 06:13:06;;;;;;;3.27;2.20;;;8.90;99.90;;;9.16;57.33;93894.03;5086855;28;20275;-69
2021/05/04 06:15:43;;;;;;;2.83;2.40;;;8.70;99.90;;;9.37;57.43;93901.00;5087012;28;20685;-69
2021/05/04 06:18:11;;;;;;;2.63;2.10;;;8.70;99.90;;;9.55;57.40;93899.78;5063312;28;20398;-68
2021/05/04 06:20:38;;;;;;;3.23;2.53;;;9.10;99.90;;;9.74;57.79;93907.00;5052942;28;20176;-70
2021/05/04 06:23:06;;;;;;;2.43;2.23;;;9.30;99.90;;;10.27;57.71;93905.88;5092726;28;20233;-69
2021/05/04 06:25:36;;;;;;;2.63;2.40;;;9.70;99.90;;;11.20;57.63;93921.56;5086601;28;20171;-68
2021/05/04 06:28:08;;;;;;;2.30;2.10;;;10.50;99.90;;;12.34;57.98;93916.16;5063961;28;20208;-70
2021/05/04 06:30:38;;;;;;;1.80;1.70;;;11.60;99.90;;;13.63;57.57;93924.44;5066832;28;20178;-73
2021/05/04 06:33:13;;;;;;;2.13;1.80;;;13.00;99.90;;;15.01;57.76;93940.31;5051694;28;20267;-70
2021/05/04 06:35:48;;;;;;;1.63;1.47;;;14.30;99.90;;;17.03;57.71;93955.19;5062877;28;20209;-70
2021/05/04 06:38:16;;;;;;;1.60;1.40;;;16.40;99.90;;;18.81;57.58;93936.84;5071150;28;20178;-67
2021/05/04 06:40:50;;;;;;;2.57;1.27;;;18.50;99.90;;;20.48;57.51;93901.72;5093533;28;20189;-68
2021/05/04 06:43:17;;;;;;;1.60;1.40;;;20.50;92.20;;;20.09;57.20;93825.59;5083808;28;20178;-69
2021/05/04 06:45:44;;;;;;;2.07;1.30;;;20.90;83.00;;;19.32;56.98;93831.25;5054398;28;20177;-68
2021/05/04 06:48:10;;;;;;;1.20;1.10;;;20.40;80.00;;;18.77;56.80;93840.00;5065739;28;20202;-71
2021/05/04 06:50:36;;;;;;;2.10;1.40;;;19.80;80.00;;;18.57;56.37;93854.06;5055586;28;20197;-71
2021/05/04 06:53:02;;;;;;;1.93;1.30;;;19.50;80.30;;;19.95;56.33;93917.28;5045056;28;20286;-72
2021/05/04 06:55:28;;;;;;;1.70;1.20;;;20.30;79.90;;;20.91;55.96;93881.47;5046325;28;20652;-69
2021/05/04 06:57:57;;;;;;;1.93;1.20;;;21.30;76.40;;;21.69;55.85;93876.16;5054412;28;20193;-70
2021/05/04 07:00:24;;;;;;;1.50;1.10;;;22.20;73.70;;;21.69;55.65;93840.31;5040344;28;20181;-70
2021/05/04 07:02:53;;;;;;;1.20;1.10;;;22.60;70.90;;;21.22;55.62;93840.63;5100486;27;20178;-69
2021/05/04 07:05:22;;;;;;;1.97;1.30;;;22.40;69.70;;;20.66;55.08;93849.31;5070245;28;20174;-71
2021/05/04 07:07:50;;;;;;;2.20;1.40;;;21.90;70.80;;;20.16;54.75;93844.69;5043498;28;20202;-69
2021/05/04 07:10:19;;;;;;;1.70;1.20;;;21.40;72.50;;;20.12;54.71;93842.97;5063071;28;20239;-68
2021/05/04 07:12:48;;;;;;;1.47;1.30;;;21.20;68.00;;;19.71;54.42;93849.03;5062204;28;20182;-69
2021/05/04 07:15:16;;;;;;;1.43;1.33;;;20.80;68.30;;;19.94;54.27;93842.28;5051058;28;20186;-69
2021/05/04 07:17:45;;;;;;;1.97;1.33;;;21.00;68.40;;;20.56;54.18;93908.97;5064658;28;20649;-70
2021/05/04 07:20:18;;;;;;;1.60;1.50;;;21.50;68.70;;;21.44;53.87;93894.19;5047685;28;20646;-67
2021/05/04 07:22:44;;;;;;;2.10;1.40;;;22.30;65.30;;;22.09;53.40;93878.28;5051143;28;20523;-70
2021/05/04 07:25:15;;;;;;;1.90;1.50;;;23.10;62.60;;;22.89;53.66;93880.06;5070085;28;20218;-68
2021/05/04 07:27:44;;;;;;;2.47;1.40;;;24.00;64.30;;;23.30;53.29;93876.19;5066816;28;20195;-70
2021/05/04 07:30:10;;;;;;;1.33;1.23;;;24.60;62.10;;;23.80;53.15;93899.22;5060143;28;20657;-67
2021/05/04 07:32:39;;;;;;;2.00;1.27;;;25.10;60.00;;;24.77;52.63;93904.75;5063248;28;20244;-70
2021/05/04 07:35:08;;;;;;;2.60;1.30;;;26.30;57.70;;;26.83;52.25;93917.66;5042237;28;20215;-71
2021/05/04 07:37:38;;;;;;;2.87;1.30;;;28.30;54.70;;;27.78;51.78;93850.06;5066506;28;20201;-69
2021/05/04 07:40:05;;;;;;;1.50;1.23;;;29.40;51.50;;;28.40;51.82;93872.88;5063533;28;20707;-73
2021/05/04 07:42:34;;;;;;;1.40;1.30;;;30.50;49.40;;;29.43;51.51;93864.22;5068044;28;20190;-70
2021/05/04 07:45:00;;;;;;;2.33;1.40;;;31.90;47.80;;;30.11;50.89;93869.91;5062780;28;20182;-74
2021/05/04 07:47:26;;;;;;;1.50;1.40;;;32.70;46.00;;;29.50;50.15;93795.16;5047487;28;20190;-69
2021/05/04 07:49:56;;;;;;;2.13;1.50;;;32.60;44.80;;;29.28;49.58;93812.66;5054265;28;20191;-71
2021/05/04 07:52:23;;;;;;;1.50;1.40;;;32.50;44.60;;;29.33;49.38;93831.38;5056558;28;20194;-68
2021/05/04 07:54:51;;;;;;;1.23;1.10;;;32.70;45.10;;;29.75;49.21;93797.97;5054509;28;20517;-69
2021/05/04 07:57:19;;;;;;;3.67;1.50;;;33.00;44.30;;;30.09;48.59;93859.34;5088672;28;20209;-68
2021/05/04 07:59:45;;;;;;;1.57;1.20;;;33.10;45.00;;;31.03;48.55;93826.91;5053764;28;20183;-69
2021/05/04 08:02:11;;;;;;;2.73;1.33;;;34.00;44.00;;;30.93;48.00;93789.34;5069985;28;20597;-68
2021/05/04 08:04:38;;;;;;;2.53;1.37;;;34.30;43.70;;;30.62;47.46;93831.25;5065069;28;20217;-69
2021/05/04 08:07:08;;;;;;;1.73;1.50;;;34.10;43.50;;;30.01;47.19;93773.03;5066647;28;20214;-69
2021/05/04 08:09:37;;;;;;;2.10;1.40;;;33.80;42.80;;;29.88;46.96;93826.50;5053392;28;20179;-68
2021/05/04 08:12:05;;;;;;;2.50;1.53;;;33.30;42.80;;;29.19;47.04;93795.78;5068297;28;20231;-69
2021/05/04 08:14:33;;;;;;;2.00;1.43;;;32.90;43.20;;;29.45;46.31;93850.94;5073043;28;20189;-69
2021/05/04 08:17:00;;;;;;;1.90;1.80;;;32.60;44.20;;;29.75;46.07;93819.81;5085764;28;20179;-68
2021/05/04 08:19:26;;;;;;;1.40;1.30;;;32.70;44.20;;;28.83;45.44;93797.59;5054670;28;20217;-69
2021/05/04 08:21:52;;;;;;;1.60;1.50;;;32.30;43.10;;;28.43;45.51;93807.44;5073444;28;20174;-71
2021/05/04 08:24:20;;;;;;;1.83;1.60;;;31.60;44.20;;;28.38;44.80;93807.78;5075770;28;20629;-68
2021/05/04 08:26:48;;;;;;;1.40;1.30;;;31.30;44.20;;;28.17;45.07;93801.41;5071768;28;20253;-68
2021/05/04 08:29:15;;;;;;;2.43;1.43;;;31.00;44.50;;;28.48;44.79;93844.47;5092916;28;20197;-68
2021/05/04 08:31:43;;;;;;;2.50;1.43;;;30.90;43.60;;;28.81;44.15;93830.69;5102052;27;20664;-70
2021/05/04 08:34:10;;;;;;;1.30;1.20;;;31.10;43.00;;;28.57;43.73;93804.03;5076634;28;20182;-68
2021/05/04 08:36:39;;;;;;;2.33;1.50;;;30.90;43.50;;;28.42;43.93;93833.16;5070564;28;20203;-68
2021/05/04 08:39:06;;;;;;;1.40;1.30;;;30.70;44.10;;;28.00;43.31;93762.66;5087241;28;20223;-69
2021/05/04 08:41:36;;;;;;;1.47;1.33;;;30.50;43.10;;;27.94;42.96;93798.81;5065733;28;20527;-68
2021/05/04 08:44:03;;;;;;;2.40;1.50;;;30.30;44.80;;;28.51;42.60;93839.06;5072903;28;20513;-69
2021/05/04 08:46:34;;;;;;;2.63;1.40;;;30.80;44.60;;;28.25;42.87;93817.44;5068683;28;20616;-68
2021/05/04 08:49:07;;;;;;;1.80;1.40;;;30.20;43.50;;;27.48;42.36;93776.59;5085620;28;20198;-67
2021/05/04 08:51:33;;;;;;;2.63;1.50;;;29.50;44.20;;;27.08;42.08;93815.41;5080502;28;20571;-68
2021/05/04 08:53:59;;;;;;;1.57;1.47;;;28.90;45.60;;;27.46;42.17;93839.63;5069866;28;20198;-68
2021/05/04 08:56:25;;;;;;;2.10;1.60;;;28.80;45.10;;;27.72;41.68;93808.75;5062223;28;20264;-67
2021/05/04 08:58:52;;;;;;;2.03;1.80;;;29.10;46.20;;;28.31;41.72;93727.88;5060515;28;20286;-68
2021/05/04 09:01:20;;;;;;;3.50;1.80;;;29.80;45.10;;;29.12;41.33;93812.16;5094835;28;20183;-68
2021/05/04 09:03:49;;;;;;;2.07;1.47;;;30.50;43.40;;;28.70;41.35;93810.00;5077233;28;20815;-69
2021/05/04 09:06:21;;;;;;;1.80;1.70;;;30.00;44.00;;;29.05;40.46;93859.31;5096471;28;20186;-69
2021/05/04 09:14:13;;;;;;;1.50;1.40;;;30.40;44.70;;;29.60;40.29;93826.41;5064991;28;20195;-69
2021/05/04 09:16:57;;;;;;;2.43;1.70;;;30.80;44.80;;;30.67;39.78;93869.16;5081362;28;20183;-69
2021/05/04 09:21:55;;;;;;;1.70;1.33;;;32.90;42.40;;;31.83;39.72;93810.53;5074823;28;20198;-69
2021/05/04 09:24:41;;;;;;;2.10;1.47;;;33.70;41.90;;;32.65;39.28;93849.97;5062212;28;20311;-70
2021/05/04 09:27:15;;;;;;;2.57;1.60;;;34.80;41.50;;;32.05;38.95;93779.06;5070793;28;20739;-70
2021/05/04 09:29:53;;;;;;;2.83;1.50;;;34.40;41.00;;;32.62;38.46;93828.81;5068805;28;20182;-68
2021/05/04 09:32:29;;;;;;;3.60;1.80;;;34.60;42.20;;;32.92;38.59;93828.94;5064621;28;20582;-68
2021/05/04 09:34:57;;;;;;;1.60;1.50;;;35.30;42.40;;;34.13;38.09;93791.75;5071933;28;20205;-66
2021/05/04 09:37:25;;;;;;;2.90;1.70;;;36.10;39.80;;;32.30;37.93;93756.94;5055390;28;20230;-68
2021/05/04 09:39:51;;;;;;;2.53;1.70;;;34.40;40.40;;;31.09;37.67;93765.09;5088680;28;20186;-67
2021/05/04 09:42:17;;;;;;;1.40;1.30;;;33.30;42.60;;;31.09;37.31;93737.69;5070412;28;20174;-65
2021/05/04 09:44:47;;;;;;;2.27;1.50;;;33.30;41.60;;;30.71;37.27;93687.34;5065420;28;20195;-65
2021/05/04 09:47:20;;;;;;;1.60;1.50;;;32.90;42.00;;;30.16;36.95;93648.78;5103633;27;20278;-65
2021/05/04 09:49:46;;;;;;;2.30;1.57;;;31.80;41.30;;;29.46;36.80;93754.16;5075395;28;20688;-67
2021/05/04 09:55:16;;;;;;;1.97;1.30;;;31.30;44.00;;;29.00;36.89;93755.94;5094297;28;20182;-64
2021/05/04 09:57:51;;;;;;;1.67;1.57;;;30.60;45.20;;;28.53;36.58;93767.75;5073382;28;20317;-65
2021/05/04 10:00:22;;;;;;;3.10;1.77;;;29.60;45.30;;;27.95;36.00;93691.41;5064392;28;20235;-65
2021/05/04 10:02:48;;;;;;;1.57;1.47;;;29.10;46.90;;;27.62;36.17;93737.81;5070673;28;20589;-65
2021/05/04 10:05:18;;;;;;;1.70;1.60;;;28.70;47.20;;;28.11;35.80;93764.72;5088369;28;20268;-66
2021/05/04 10:07:48;;;;;;;2.00;1.40;;;28.90;47.90;;;29.04;35.69;93773.88;5051118;28;20178;-66
2021/05/04 10:10:18;;;;;;;1.80;1.43;;;29.80;46.80;;;29.45;36.04;93710.84;5083926;28;20346;-66
2021/05/04 10:12:48;;;;;;;2.00;1.20;;;30.40;46.50;;;28.66;35.87;93716.38;5083896;28;20178;-65
2021/05/04 10:15:15;;;;;;;2.83;1.50;;;29.70;47.10;;;27.76;35.45;93686.97;5064697;28;20194;-66
2021/05/04 10:17:42;;;;;;;1.67;1.40;;;28.90;46.30;;;26.46;35.22;93700.72;5079660;28;20565;-67
2021/05/04 10:20:15;;;;;;;1.63;1.53;;;27.60;48.80;;;25.65;35.49;93720.47;5064897;28;20215;-67
2021/05/04 10:22:47;;;;;;;2.53;1.80;;;26.80;49.60;;;24.88;35.07;93709.78;5045942;28;20698;-65
2021/05/04 10:25:20;;;;;;;1.40;1.30;;;25.80;51.90;;;24.32;34.88;93712.06;5057816;28;20202;-66
2021/05/04 10:27:52;;;;;;;1.77;1.50;;;25.00;51.50;;;24.78;34.92;93729.28;5045350;28;20198;-65
2021/05/04 10:30:20;;;;;;;1.97;1.40;;;25.10;52.30;;;25.55;34.61;93748.22;5062813;28;20649;-66
2021/05/04 10:32:59;;;;;;;1.77;1.50;;;25.70;50.20;;;26.18;34.86;93773.72;5069278;28;20625;-65
2021/05/04 10:35:31;;;;;;;3.07;1.43;;;26.30;50.10;;;26.65;34.79;93718.06;5073463;28;20618;-67
2021/05/04 10:38:17;;;;;;;3.37;1.60;;;26.90;48.20;;;26.60;34.62;93711.00;5074422;28;20214;-66
2021/05/04 10:41:01;;;;;;;2.37;1.30;;;26.90;47.70;;;26.75;34.74;93726.34;5067860;28;20675;-68
2021/05/04 10:43:27;;;;;;;2.17;1.23;;;27.10;48.40;;;26.58;34.47;93694.28;5072350;28;20177;-67